createdAt,value
2019-02-26T00:02:02.369Z,77.11
2019-02-26T00:04:32.610Z,76.51
2019-02-26T00:07:01.228Z,75.76
2019-02-26T00:09:33.077Z,77.92
2019-02-26T00:12:01.968Z,77.64
2019-02-26T00:14:30.942Z,76.16
2019-02-26T00:17:00.240Z,78.87
2019-02-26T00:19:29.355Z,78.67
2019-02-26T00:21:58.792Z,77.18
2019-02-26T00:24:30.559Z,77.61
2019-02-26T00:27:00.963Z,77.96
2019-02-26T00:29:30.394Z,76.88
2019-02-26T00:32:00.426Z,78.69
2019-02-26T00:34:30.500Z,78.43
2019-02-26T00:37:01.783Z,78.03
2019-02-26T00:39:31.532Z,77.19
2019-02-26T00:42:02.528Z,76.77
2019-02-26T00:44:32.740Z,76.45
2019-02-26T00:47:04.450Z,75.92
2019-02-26T00:49:32.987Z,78.89
2019-02-26T00:52:03.834Z,81.00
2019-02-26T00:54:34.383Z,81.79
2019-02-26T00:57:03.955Z,81.73
2019-02-26T00:59:36.632Z,78.19
2019-02-26T01:02:06.056Z,77.12
2019-02-26T01:04:34.932Z,77.03
2019-02-26T03:56:37.956Z,83.69
2019-02-26T03:59:09.531Z,83.28
2019-02-26T04:01:38.138Z,84.19
2019-02-26T04:04:07.740Z,84.03
2019-02-26T04:06:38.915Z,85.25
2019-02-26T04:09:08.543Z,86.62
2019-02-26T04:11:39.334Z,84.46
2019-02-26T04:14:12.476Z,83.59
2019-02-26T04:16:41.162Z,83.41
2019-02-26T04:19:10.966Z,83.01
2019-02-26T04:22:18.980Z,83.37
2019-02-26T04:24:47.038Z,83.42
2019-02-26T04:27:48.761Z,83.68
2019-02-26T04:31:26.835Z,84.42
2019-02-26T04:34:35.785Z,87.88
2019-02-26T04:38:06.341Z,86.14
2019-02-26T04:41:15.710Z,85.29
2019-02-26T04:44:14.438Z,86.92
2019-02-26T04:47:13.921Z,84.49
2019-02-26T04:49:43.256Z,86.82
2019-02-26T04:52:14.362Z,85.99
2019-02-26T04:54:43.688Z,85.03
2019-02-26T04:57:12.559Z,84.92
2019-02-26T04:59:43.916Z,84.97
2019-02-26T05:02:12.093Z,84.92
2019-02-26T05:04:42.142Z,85.16
2019-02-26T05:07:15.680Z,86.50
2019-02-26T05:09:43.037Z,87.37
2019-02-26T05:12:12.014Z,86.83
2019-02-26T05:14:41.224Z,85.95
2019-02-26T05:17:10.332Z,85.43
2019-02-26T05:19:42.332Z,87.04
2019-02-26T05:22:10.301Z,88.12
2019-02-26T05:24:42.410Z,86.75
2019-02-26T05:27:22.320Z,87.44
2019-02-26T05:29:52.559Z,85.88
2019-02-26T05:32:21.813Z,86.72
2019-02-26T05:34:50.982Z,86.00
2019-02-26T05:37:19.922Z,87.12
2019-02-26T05:39:51.055Z,85.42
2019-02-26T05:42:35.167Z,84.85
2019-02-26T05:48:08.579Z,85.07
2019-02-26T05:50:38.663Z,88.74
2019-02-26T05:53:10.484Z,86.73
2019-02-26T05:55:41.633Z,85.69
2019-02-26T05:58:12.576Z,85.54
2019-02-26T06:00:41.281Z,87.79
2019-02-26T06:03:12.818Z,87.34
2019-02-26T06:05:45.556Z,86.12
2019-02-26T06:08:13.086Z,85.43
2019-02-26T06:10:42.281Z,86.12
2019-02-26T06:13:15.512Z,85.78
2019-02-26T06:15:43.774Z,87.15
2019-02-26T06:18:12.696Z,86.18
2019-02-26T06:20:41.602Z,85.93
2019-02-26T06:23:10.462Z,88.75
2019-02-26T06:25:39.599Z,89.69
2019-02-26T06:28:12.548Z,87.57
2019-02-26T06:30:40.321Z,85.86
2019-02-26T06:33:11.630Z,85.32
2019-02-26T06:35:46.149Z,86.70
2019-02-26T06:38:15.063Z,86.05
2019-02-26T06:40:47.029Z,86.93
2019-02-26T06:43:14.673Z,89.17
2019-02-26T06:45:45.369Z,89.98
2019-02-26T06:48:16.983Z,87.61
2019-02-26T06:50:44.775Z,86.86
2019-02-26T06:53:16.659Z,85.72
2019-02-26T06:55:45.495Z,87.34
2019-02-26T06:58:25.330Z,87.89
2019-02-26T07:00:55.493Z,87.61
2019-02-26T07:03:25.010Z,86.15
2019-02-26T07:05:54.137Z,86.33
2019-02-26T07:08:24.235Z,88.71
2019-02-26T07:10:54.045Z,86.64
2019-02-26T07:13:23.895Z,87.81
2019-02-26T07:15:52.804Z,88.43
2019-02-26T07:18:21.805Z,87.91
2019-02-26T07:20:57.719Z,88.20
2019-02-26T07:23:38.198Z,87.08
2019-02-26T07:28:48.754Z,86.34
2019-02-26T07:31:18.042Z,86.29
2019-02-26T07:33:51.522Z,86.74
2019-02-26T07:43:44.051Z,86.09
2019-02-26T07:46:33.299Z,88.30
2019-02-26T07:49:04.759Z,87.17
2019-02-26T07:51:36.405Z,86.86
2019-02-26T07:54:06.119Z,87.10
2019-02-26T07:56:34.997Z,86.60
2019-02-26T07:59:07.098Z,85.70
2019-02-26T08:01:35.402Z,85.32
2019-02-26T08:04:06.230Z,84.72
2019-02-26T08:06:36.182Z,84.36
2019-02-26T08:09:12.179Z,83.82
2019-02-26T08:11:43.814Z,83.13
2019-02-26T08:14:14.352Z,82.47
2019-02-26T08:16:43.054Z,81.84
2019-02-26T08:19:11.950Z,81.55
2019-02-26T08:21:41.342Z,80.84
2019-02-26T08:24:12.376Z,80.33
2019-02-26T08:26:43.018Z,79.85
2019-02-26T08:29:12.656Z,79.85
2019-02-26T08:31:47.468Z,79.71
2019-02-26T08:34:18.659Z,79.42
2019-02-26T08:36:50.343Z,79.28
2019-02-26T08:39:19.359Z,79.13
2019-02-26T08:42:06.363Z,79.13
2019-02-26T08:44:35.327Z,78.20
2019-02-26T08:47:08.709Z,78.00
2019-02-26T08:49:37.838Z,77.96
2019-02-26T08:52:08.569Z,77.53
2019-02-26T08:54:44.787Z,76.86
2019-02-26T08:57:12.012Z,76.29
2019-02-26T08:59:45.278Z,75.17
2019-02-26T09:02:17.591Z,74.73
2019-02-26T09:04:47.854Z,74.29
2019-02-26T09:07:18.964Z,74.09
2019-02-26T09:09:48.149Z,74.10
2019-02-26T09:12:19.840Z,72.38
2019-02-26T09:14:50.062Z,72.71
2019-02-26T09:17:23.156Z,71.13
2019-02-26T09:19:54.667Z,69.72
2019-02-26T09:22:23.606Z,70.79
2019-02-26T09:24:54.376Z,68.87
2019-02-26T09:27:24.811Z,69.63
2019-02-26T09:29:53.966Z,69.44
2019-02-26T09:32:22.930Z,69.91
2019-02-26T09:34:52.476Z,69.87
2019-02-26T09:37:22.643Z,69.78
2019-02-26T09:39:52.442Z,67.47
2019-02-26T09:42:25.107Z,66.44
2019-02-26T09:44:55.415Z,64.83
2019-02-26T09:47:31.558Z,64.09
2019-02-26T09:50:00.873Z,63.44
2019-02-26T09:52:32.452Z,63.78
2019-02-26T09:55:00.777Z,63.41
2019-02-26T09:57:29.677Z,61.14
2019-02-26T10:00:00.235Z,61.56
2019-02-26T10:02:29.897Z,61.80
2019-02-26T10:04:58.843Z,61.76
2019-02-26T10:07:28.493Z,61.28
2019-02-26T10:10:00.505Z,58.00
2019-02-26T10:12:32.049Z,59.66
2019-02-26T10:15:02.445Z,57.72
2019-02-26T10:17:33.446Z,58.57
2019-02-26T10:20:04.359Z,57.40
2019-02-26T10:22:33.328Z,55.90
2019-02-26T10:25:03.732Z,56.76
2019-02-26T10:27:35.762Z,56.04
2019-02-26T10:30:07.187Z,54.79
2019-02-26T10:32:33.969Z,54.98
2019-02-26T10:35:04.616Z,53.76
2019-02-26T10:37:36.935Z,54.60
2019-02-26T10:40:07.649Z,53.17
2019-02-26T10:42:39.785Z,52.79
2019-02-26T10:45:07.703Z,54.20
2019-02-26T10:47:36.878Z,52.00
2019-02-26T10:50:07.497Z,50.92
2019-02-26T10:52:38.846Z,49.66
2019-02-26T10:55:08.141Z,49.55
2019-02-26T10:57:38.488Z,49.36
2019-02-26T11:00:31.195Z,50.16
2019-02-26T11:03:20.120Z,49.58
2019-02-26T11:05:51.842Z,49.32
2019-02-26T11:08:20.770Z,50.18
2019-02-26T11:10:52.196Z,49.70
2019-02-26T11:13:23.072Z,47.46
2019-02-26T11:15:57.402Z,47.78
2019-02-26T11:18:34.622Z,47.51
2019-02-26T11:27:07.392Z,46.45
2019-02-26T11:29:38.238Z,47.16
2019-02-26T11:32:07.835Z,45.48
2019-02-26T11:34:38.296Z,44.78
2019-02-26T11:37:08.837Z,45.44
2019-02-26T11:39:38.003Z,48.13
2019-02-26T11:42:06.923Z,44.58
2019-02-26T11:44:35.939Z,43.48
2019-02-26T11:47:04.934Z,42.10
2019-02-26T11:49:41.669Z,43.63
2019-02-26T11:52:10.716Z,46.30
2019-02-26T11:54:48.004Z,43.58
2019-02-26T11:57:17.831Z,43.54
2019-02-26T11:59:46.899Z,45.32
2019-02-26T12:02:25.193Z,45.23
2019-02-26T12:04:47.606Z,43.06
2019-02-26T12:07:16.456Z,44.75
2019-02-26T12:09:45.359Z,43.91
2019-02-26T12:12:14.315Z,45.05
2019-02-26T12:14:45.786Z,42.14
2019-02-26T12:17:14.046Z,43.13
2019-02-26T12:19:42.962Z,43.70
2019-02-26T12:22:12.223Z,42.76
2019-02-26T12:24:41.754Z,42.66
2019-02-26T12:27:16.278Z,42.72
2019-02-26T12:29:43.621Z,43.15
2019-02-26T12:32:14.200Z,42.26
2019-02-26T12:34:45.453Z,42.39
2019-02-26T12:37:14.181Z,42.45
2019-02-26T12:39:44.378Z,40.07
2019-02-26T12:42:26.435Z,38.83
2019-02-26T12:44:57.593Z,40.64
2019-02-26T12:47:27.729Z,41.12
2019-02-26T12:50:18.634Z,39.28
2019-02-26T12:52:47.494Z,37.88
2019-02-26T12:55:17.019Z,38.63
2019-02-26T12:57:47.253Z,40.20
2019-02-26T13:00:43.999Z,39.27
2019-02-26T13:03:15.676Z,39.89
2019-02-26T13:05:45.645Z,38.76
2019-02-26T13:08:18.937Z,38.60
2019-02-26T13:10:49.586Z,38.92
2019-02-26T13:13:16.602Z,38.69
2019-02-26T13:15:45.803Z,39.68
2019-02-26T13:18:25.264Z,37.03
2019-02-26T13:20:59.545Z,37.95
2019-02-26T13:23:25.306Z,36.37
2019-02-26T13:25:54.208Z,36.26
2019-02-26T13:28:29.333Z,35.55
2019-02-26T13:30:54.070Z,36.76
2019-02-26T13:33:27.485Z,37.16
2019-02-26T13:35:58.789Z,38.38
2019-02-26T13:38:28.961Z,36.54
2019-02-26T13:41:19.959Z,36.54
2019-02-26T13:43:28.631Z,37.05
2019-02-26T13:45:57.644Z,38.05
2019-02-26T13:48:26.723Z,37.24
2019-02-26T13:50:55.881Z,38.17
2019-02-26T13:53:25.141Z,37.34
2019-02-26T13:55:54.194Z,36.14
2019-02-26T13:58:22.979Z,36.43
2019-02-26T14:00:52.134Z,36.34
2019-02-26T14:03:21.231Z,35.88
2019-02-26T14:05:50.046Z,36.72
2019-02-26T14:08:19.127Z,35.42
2019-02-26T14:10:48.414Z,35.70
2019-02-26T14:13:17.368Z,35.35
2019-02-26T14:15:46.385Z,36.16
2019-02-26T14:18:15.221Z,33.40
2019-02-26T14:20:45.503Z,34.36
2019-02-26T14:23:14.511Z,34.46
2019-02-26T14:25:43.988Z,34.09
2019-02-26T14:28:13.166Z,33.62
2019-02-26T14:30:42.115Z,33.11
2019-02-26T14:33:11.263Z,33.34
2019-02-26T14:35:40.327Z,34.01
2019-02-26T14:38:09.124Z,33.54
2019-02-26T14:40:38.196Z,34.21
2019-02-26T14:43:07.581Z,33.92
2019-02-26T14:45:36.611Z,34.50
2019-02-26T14:48:05.619Z,35.51
2019-02-26T14:50:34.828Z,35.38
2019-02-26T14:53:03.680Z,36.51
2019-02-26T14:55:32.586Z,35.24
2019-02-26T14:58:01.616Z,36.30
2019-02-26T15:00:30.600Z,35.16
2019-02-26T15:02:59.659Z,36.40
2019-02-26T15:05:28.874Z,36.42
2019-02-26T15:07:57.755Z,36.72
2019-02-26T15:10:26.629Z,38.35
2019-02-26T15:12:55.793Z,39.50
2019-02-26T15:15:24.785Z,39.63
2019-02-26T15:17:53.748Z,39.67
2019-02-26T15:20:22.615Z,38.57
2019-02-26T15:22:51.646Z,37.24
2019-02-26T15:25:23.196Z,37.54
2019-02-26T15:27:52.554Z,36.98
2019-02-26T15:30:21.951Z,36.88
2019-02-26T15:32:50.918Z,37.66
2019-02-26T15:35:19.942Z,37.81
2019-02-26T15:37:48.873Z,38.26
2019-02-26T15:40:17.885Z,39.17
2019-02-26T15:42:46.908Z,38.36
2019-02-26T15:45:23.895Z,38.50
2019-02-26T15:47:51.098Z,38.07
2019-02-26T15:50:20.116Z,40.05
2019-02-26T15:52:52.627Z,40.56
2019-02-26T15:55:21.857Z,41.63
2019-02-26T15:57:50.561Z,42.81
2019-02-26T16:00:20.585Z,43.50
2019-02-26T16:02:50.788Z,43.77
2019-02-26T16:05:20.689Z,44.40
2019-02-26T16:07:50.005Z,44.96
2019-02-26T16:10:19.460Z,42.05
2019-02-26T16:12:49.871Z,42.53
2019-02-26T16:15:18.844Z,40.84
2019-02-26T16:17:47.907Z,41.32
2019-02-26T16:20:18.267Z,42.72
2019-02-26T16:22:48.012Z,39.65
2019-02-26T16:25:17.066Z,41.75
2019-02-26T16:27:49.023Z,40.88
2019-02-26T16:30:19.604Z,40.17
2019-02-26T16:32:49.101Z,40.29
2019-02-26T16:35:19.563Z,41.40
2019-02-26T16:37:48.544Z,41.91
2019-02-26T16:40:17.515Z,41.91
2019-02-26T16:42:46.807Z,42.95
2019-02-26T16:45:17.518Z,43.75
2019-02-26T16:47:48.709Z,43.75
2019-02-26T16:50:18.671Z,44.04
2019-02-26T16:52:53.482Z,44.27
2019-02-26T16:55:28.721Z,45.84
2019-02-26T16:58:02.314Z,45.77
2019-02-26T17:00:28.818Z,46.24
2019-02-26T17:03:00.752Z,46.53
2019-02-26T17:05:28.916Z,47.02
2019-02-26T17:07:58.178Z,47.90
2019-02-26T17:10:30.402Z,49.07
2019-02-26T17:13:02.292Z,49.81
2019-02-26T17:15:30.818Z,49.48
2019-02-26T17:18:00.852Z,50.33
2019-02-26T17:20:29.942Z,51.67
2019-02-26T17:22:59.148Z,52.03
2019-02-26T17:25:29.004Z,51.51
2019-02-26T17:27:58.423Z,52.99
2019-02-26T17:30:27.480Z,51.88
2019-02-26T17:32:56.527Z,53.22
2019-02-26T17:35:28.576Z,53.34
2019-02-26T17:37:56.441Z,52.71
2019-02-26T17:40:26.605Z,54.24
2019-02-26T17:42:55.852Z,53.25
2019-02-26T17:45:27.193Z,55.12
2019-02-26T17:47:56.926Z,54.45
2019-02-26T17:50:29.244Z,54.80
2019-02-26T17:52:58.430Z,54.34
2019-02-26T17:55:30.830Z,54.96
2019-02-26T17:58:10.642Z,55.36
2019-02-26T18:00:41.376Z,55.17
2019-02-26T18:03:10.347Z,55.80
2019-02-26T18:05:50.582Z,58.51
2019-02-26T18:08:09.879Z,56.71
2019-02-26T18:10:39.172Z,56.85
2019-02-26T18:13:08.052Z,58.17
2019-02-26T18:15:37.503Z,61.13
2019-02-26T18:18:06.736Z,60.61
2019-02-26T18:20:35.572Z,59.43
2019-02-26T18:23:05.486Z,58.97
2019-02-26T18:25:34.499Z,58.91
2019-02-26T18:28:03.419Z,59.55
2019-02-26T18:30:33.114Z,59.13
2019-02-26T18:33:02.120Z,60.48
2019-02-26T18:35:31.543Z,60.44
2019-02-26T18:38:00.356Z,60.56
2019-02-26T18:40:29.252Z,60.50
2019-02-26T18:42:58.163Z,59.92
2019-02-26T18:45:29.139Z,59.90
2019-02-26T18:47:58.203Z,60.65
2019-02-26T18:50:29.557Z,61.41
2019-02-26T18:52:59.761Z,60.75
2019-02-26T18:55:35.364Z,59.90
2019-02-26T18:58:04.411Z,60.88
2019-02-26T19:00:33.445Z,61.57
2019-02-26T19:03:04.050Z,62.03
2019-02-26T19:05:33.405Z,62.72
2019-02-26T19:08:05.588Z,62.00
2019-02-26T19:10:33.076Z,62.59
2019-02-26T19:13:02.741Z,62.78
2019-02-26T19:15:32.265Z,63.83
2019-02-26T19:18:02.722Z,63.44
2019-02-26T19:20:32.197Z,63.78
2019-02-26T19:23:03.830Z,63.41
2019-02-26T19:25:32.831Z,62.69
2019-02-26T19:28:02.659Z,63.42
2019-02-26T19:30:32.285Z,64.12
2019-02-26T19:33:03.489Z,64.39
2019-02-26T19:35:38.171Z,64.17
2019-02-26T19:38:03.291Z,63.73
2019-02-26T19:40:38.710Z,64.82
2019-02-26T19:43:05.789Z,65.18
2019-02-26T19:45:34.872Z,67.18
2019-02-26T19:48:03.999Z,66.20
2019-02-26T19:50:39.091Z,65.80
2019-02-26T19:53:10.806Z,66.17
2019-02-26T19:55:39.716Z,67.60
2019-02-26T19:58:09.288Z,66.87
2019-02-26T20:00:42.423Z,68.36
2019-02-26T20:03:11.452Z,66.92
2019-02-26T20:05:45.951Z,66.98
2019-02-26T20:08:12.560Z,67.05
2019-02-26T20:10:41.639Z,66.10
2019-02-26T20:13:12.618Z,64.90
2019-02-26T20:15:41.714Z,66.26
2019-02-26T20:18:20.213Z,66.24
2019-02-26T20:20:45.726Z,67.08
2019-02-26T20:23:12.858Z,67.53
2019-02-26T20:25:42.741Z,67.88
2019-02-26T20:28:12.618Z,67.30
2019-02-26T20:30:41.528Z,67.83
2019-02-26T20:33:10.518Z,68.03
2019-02-26T20:35:39.323Z,68.44
2019-02-26T20:38:26.769Z,66.95
2019-02-26T20:41:15.089Z,66.36
2019-02-26T20:43:44.362Z,67.66
2019-02-26T20:46:14.638Z,67.58
2019-02-26T20:48:44.056Z,68.47
2019-02-26T20:51:14.969Z,68.20
2019-02-26T20:53:43.833Z,69.16
2019-02-26T21:03:08.199Z,68.66
2019-02-26T21:05:37.166Z,67.98
2019-02-26T21:08:07.119Z,68.76
2019-02-26T21:10:36.638Z,70.09
2019-02-26T21:13:05.614Z,70.39
2019-02-26T21:15:34.831Z,70.04
2019-02-26T21:18:03.841Z,70.20
2019-02-26T21:20:33.270Z,69.90
2019-02-26T21:23:02.273Z,69.03
2019-02-26T21:25:31.197Z,69.62
2019-02-26T21:28:01.473Z,71.16
2019-02-26T21:30:30.529Z,71.08
2019-02-26T21:33:00.004Z,72.31
2019-02-26T21:35:29.074Z,70.23
2019-02-26T21:42:11.312Z,70.47
2019-02-26T21:44:41.833Z,70.23
2019-02-26T21:47:10.795Z,71.32
2019-02-26T21:49:40.892Z,71.70
2019-02-26T21:52:09.825Z,72.23
2019-02-26T21:54:40.224Z,71.76
2019-02-26T21:57:10.285Z,70.36
2019-02-26T21:59:39.834Z,70.13
2019-02-26T22:02:09.825Z,70.38
2019-02-26T22:04:39.448Z,70.75
2019-02-26T22:07:08.985Z,71.70
2019-02-26T22:09:38.301Z,73.01
2019-02-26T22:12:07.526Z,72.43
2019-02-26T22:14:37.452Z,72.09
2019-02-26T22:17:08.312Z,72.00
2019-02-26T22:19:40.186Z,72.20
2019-02-26T22:22:09.245Z,73.26
2019-02-26T22:24:40.675Z,73.12
2019-02-26T22:27:08.699Z,72.55
2019-02-26T22:29:37.619Z,71.51
2019-02-26T22:32:06.456Z,71.37
2019-02-26T22:34:35.314Z,71.21
2019-02-26T22:37:07.282Z,71.52
2019-02-26T22:39:40.568Z,72.57
2019-02-26T22:42:09.395Z,72.79
2019-02-26T22:44:38.608Z,73.61
2019-02-26T22:47:07.703Z,73.83
2019-02-26T22:49:36.535Z,71.75
2019-02-26T22:52:06.518Z,72.42
2019-02-26T22:54:35.322Z,73.10
2019-02-26T22:57:04.154Z,73.19
2019-02-26T22:59:33.035Z,73.67
2019-02-26T23:02:01.998Z,73.74
2019-02-26T23:04:30.982Z,74.12
2019-02-26T23:06:59.944Z,74.17
2019-02-26T23:09:30.215Z,74.01
2019-02-26T23:11:59.096Z,72.35
2019-02-26T23:14:28.786Z,73.06
2019-02-26T23:16:58.549Z,74.09
2019-02-26T23:19:27.719Z,75.24
2019-02-26T23:21:56.676Z,73.13
2019-02-26T23:24:27.752Z,73.20
2019-02-26T23:26:56.600Z,75.55
2019-02-26T23:29:27.819Z,74.72
2019-02-26T23:31:56.438Z,75.14
2019-02-26T23:34:25.530Z,74.97
2019-02-26T23:36:54.559Z,77.10
2019-02-26T23:39:25.172Z,75.36
2019-02-26T23:41:56.800Z,74.75
2019-02-26T23:44:34.457Z,74.98
2019-02-26T23:47:03.412Z,75.05
2019-02-26T23:49:32.807Z,74.50
2019-02-26T23:52:01.691Z,74.25
2019-02-26T23:54:30.528Z,75.75
2019-02-26T23:56:59.408Z,75.24
2019-02-26T23:59:28.250Z,74.30
